Time;durP1;ratioP1;P1;durP2;ratioP2;P2;SDS_P1;SDS_P2;PMS_P1;PMS_P2;Temp;Humidity;BMP_temperature;BMP_pressure;BME280_temperature;BME280_humidity;BME280_pressure;Samples;Min_cycle;Max_cycle;Signal;HPM_P1;HPM_P2
2022/01/19 00:01:21;;;;;;;51.83;19.27;;;-0.70;99.90;;;;;;4424407;32;20602;-64
2022/01/19 00:03:49;;;;;;;46.70;19.23;;;-0.80;99.90;;;;;;4425957;32;20583;-64
2022/01/19 00:06:16;;;;;;;46.70;18.63;;;-0.80;99.90;;;;;;4425750;32;20454;-63
2022/01/19 00:08:44;;;;;;;56.47;20.13;;;-0.80;99.90;;;;;;4424593;32;20178;-64
2022/01/19 00:11:11;;;;;;;59.90;20.60;;;-0.70;99.90;;;;;;4426876;32;20135;-64
2022/01/19 00:13:38;;;;;;;49.23;19.30;;;-0.70;99.90;;;;;;4425232;32;20165;-64
2022/01/19 00:16:06;;;;;;;59.27;21.43;;;-0.70;99.90;;;;;;4426183;32;20135;-64
2022/01/19 00:18:33;;;;;;;51.70;20.80;;;-0.60;99.90;;;;;;4424114;32;20174;-65
2022/01/19 00:21:00;;;;;;;51.20;20.03;;;-0.60;99.90;;;;;;4424547;32;20193;-65
2022/01/19 00:23:27;;;;;;;56.97;21.03;;;-0.60;99.90;;;;;;4425766;32;20281;-64
2022/01/19 00:25:55;;;;;;;52.47;20.03;;;-0.60;99.90;;;;;;4424509;32;20545;-64
2022/01/19 00:28:23;;;;;;;53.63;20.50;;;-0.50;99.90;;;;;;4432882;32;20204;-64
2022/01/19 00:30:50;;;;;;;53.87;20.30;;;-0.60;99.90;;;;;;4439484;32;20233;-64
2022/01/19 00:33:19;;;;;;;49.00;19.33;;;-0.60;99.90;;;;;;4439099;32;20182;-64
2022/01/19 00:35:50;;;;;;;51.00;20.27;;;-0.70;99.90;;;;;;4439572;32;20465;-64
2022/01/19 00:38:17;;;;;;;53.13;19.17;;;-0.60;99.90;;;;;;4439677;32;20193;-64
2022/01/19 00:40:46;;;;;;;50.70;20.03;;;-0.60;99.90;;;;;;4442128;32;20400;-65
2022/01/19 00:43:13;;;;;;;48.07;19.57;;;-0.60;99.90;;;;;;4440501;32;20563;-64
2022/01/19 00:45:42;;;;;;;50.30;19.87;;;-0.50;99.90;;;;;;4439620;32;20170;-64
2022/01/19 00:48:25;;;;;;;49.50;18.83;;;-0.50;99.90;;;;;;4439406;32;20186;-65
2022/01/19 00:50:53;;;;;;;46.67;18.87;;;-0.50;99.90;;;;;;4439032;32;20176;-64
2022/01/19 00:53:19;;;;;;;51.03;18.30;;;-0.60;99.90;;;;;;4439248;32;20169;-64
2022/01/19 00:55:47;;;;;;;49.07;18.63;;;-0.60;99.90;;;;;;4442102;32;20350;-64
2022/01/19 00:58:14;;;;;;;47.53;19.10;;;-0.60;99.90;;;;;;4439969;32;20223;-64
2022/01/19 01:00:41;;;;;;;51.37;18.63;;;-0.60;99.90;;;;;;4440610;32;20520;-64
2022/01/19 01:03:08;;;;;;;51.77;18.17;;;-0.60;99.90;;;;;;4440911;32;20250;-65
2022/01/19 01:05:36;;;;;;;50.87;18.73;;;-0.60;99.90;;;;;;4440493;32;20583;-64
2022/01/19 01:08:03;;;;;;;48.20;17.80;;;-0.60;99.90;;;;;;4441922;32;20170;-64
2022/01/19 01:10:31;;;;;;;49.87;18.47;;;-0.60;99.90;;;;;;4438863;32;20520;-65
2022/01/19 01:13:17;;;;;;;52.13;18.87;;;-0.50;99.90;;;;;;4439194;32;20193;-63
2022/01/19 01:18:20;;;;;;;46.30;17.20;;;-0.50;99.90;;;;;;4438718;32;20193;-64
2022/01/19 01:20:57;;;;;;;43.77;16.67;;;-0.50;99.90;;;;;;4428032;32;20174;-64
2022/01/19 01:23:26;;;;;;;44.30;16.80;;;-0.50;99.90;;;;;;4440314;32;20169;-64
2022/01/19 01:25:54;;;;;;;44.97;17.80;;;-0.40;99.90;;;;;;4440444;32;20181;-64
2022/01/19 01:28:21;;;;;;;43.40;16.47;;;-0.40;99.90;;;;;;4438833;32;20425;-64
2022/01/19 01:30:48;;;;;;;44.60;16.60;;;-0.40;99.90;;;;;;4440210;32;20174;-64
2022/01/19 01:33:15;;;;;;;49.90;16.57;;;-0.40;99.90;;;;;;4440234;32;20226;-64
2022/01/19 01:35:42;;;;;;;42.50;16.13;;;-0.40;99.90;;;;;;4441229;32;20203;-64
2022/01/19 01:38:09;;;;;;;37.77;16.23;;;-0.40;99.90;;;;;;4440286;32;20197;-64
2022/01/19 01:40:47;;;;;;;42.47;15.40;;;-0.40;99.90;;;;;;4439141;32;20200;-64
2022/01/19 01:43:14;;;;;;;40.63;16.63;;;-0.30;99.90;;;;;;4438375;32;20478;-64
2022/01/19 01:45:44;;;;;;;47.13;16.20;;;-0.30;99.90;;;;;;4441539;32;20450;-65
2022/01/19 01:48:15;;;;;;;41.33;15.90;;;-0.30;99.90;;;;;;4438731;32;20178;-64
2022/01/19 01:53:31;;;;;;;43.03;15.77;;;-0.20;99.90;;;;;;4439672;32;20364;-64
2022/01/19 01:56:01;;;;;;;46.07;16.47;;;-0.20;99.90;;;;;;4438915;32;20169;-64
2022/01/19 01:58:31;;;;;;;45.67;16.20;;;-0.20;99.90;;;;;;4439828;32;20391;-64
2022/01/19 02:00:58;;;;;;;36.23;15.10;;;-0.20;99.90;;;;;;4438776;32;20501;-64
2022/01/19 02:03:26;;;;;;;41.50;14.80;;;-0.20;99.90;;;;;;4441149;32;20165;-64
2022/01/19 02:06:31;;;;;;;49.87;16.47;;;-0.20;99.90;;;;;;4440056;32;20273;-64
2022/01/19 02:09:15;;;;;;;40.30;15.30;;;-0.20;99.90;;;;;;4440329;32;20166;-64
2022/01/19 02:23:11;;;;;;;34.97;14.63;;;-0.20;99.90;;;;;;4441150;32;20472;-64
2022/01/19 02:25:42;;;;;;;38.93;14.13;;;-0.10;99.90;;;;;;4439873;32;20169;-64
2022/01/19 02:41:43;;;;;;;37.57;13.17;;;-0.10;99.90;;;;;;4439569;32;20170;-64
2022/01/19 02:44:12;;;;;;;35.93;13.10;;;-0.10;99.90;;;;;;4437792;32;20512;-64
2022/01/19 02:49:25;;;;;;;31.97;12.70;;;0.00;99.90;;;;;;4437630;32;20166;-64
2022/01/19 02:51:54;;;;;;;36.30;12.30;;;0.00;99.90;;;;;;4437878;32;20190;-64
2022/01/19 02:54:23;;;;;;;36.57;13.47;;;0.00;99.90;;;;;;4437328;32;20188;-64
2022/01/19 02:56:54;;;;;;;38.33;12.90;;;0.00;99.90;;;;;;4438529;32;20423;-64
2022/01/19 03:10:15;;;;;;;36.13;12.73;;;0.10;99.90;;;;;;4440720;32;20194;-64
2022/01/19 03:12:42;;;;;;;29.10;11.80;;;0.10;99.90;;;;;;4442484;32;20150;-64
2022/01/19 03:15:11;;;;;;;33.00;11.83;;;0.00;99.90;;;;;;4441073;32;20170;-64
2022/01/19 03:17:38;;;;;;;40.00;12.13;;;0.10;99.90;;;;;;4443525;32;20193;-65
2022/01/19 03:20:07;;;;;;;35.53;12.20;;;0.00;99.90;;;;;;4443805;32;20507;-64
2022/01/19 03:22:40;;;;;;;36.07;12.50;;;0.00;99.90;;;;;;4441243;32;20179;-64
2022/01/19 03:25:12;;;;;;;29.93;11.43;;;-0.10;99.90;;;;;;4441420;32;20532;-64
2022/01/19 03:27:40;;;;;;;33.17;12.03;;;-0.10;99.90;;;;;;4442270;32;20188;-64
2022/01/19 03:30:08;;;;;;;40.63;12.17;;;-0.10;99.90;;;;;;4440450;32;20178;-64
2022/01/19 03:32:35;;;;;;;38.80;12.43;;;-0.10;99.90;;;;;;4442027;32;20567;-64
2022/01/19 03:35:02;;;;;;;31.53;12.60;;;-0.10;99.90;;;;;;4440570;32;20158;-64
2022/01/19 03:37:29;;;;;;;35.57;12.77;;;-0.10;99.90;;;;;;4443169;32;20514;-64
2022/01/19 03:39:56;;;;;;;35.40;12.93;;;-0.10;99.90;;;;;;4442374;32;20182;-64
2022/01/19 03:42:25;;;;;;;35.90;13.10;;;-0.10;99.90;;;;;;4441739;32;20170;-64
2022/01/19 03:44:51;;;;;;;34.63;13.13;;;0.00;99.90;;;;;;4441272;32;20533;-65
2022/01/19 03:47:18;;;;;;;30.00;12.67;;;-0.10;99.90;;;;;;4440528;32;20234;-64
2022/01/19 03:49:45;;;;;;;37.10;12.77;;;-0.10;99.90;;;;;;4442908;32;20216;-64
2022/01/19 03:52:12;;;;;;;41.10;13.63;;;-0.10;99.90;;;;;;4443049;32;20142;-64
2022/01/19 03:54:42;;;;;;;35.10;12.77;;;-0.10;99.90;;;;;;4427138;32;20201;-64
2022/01/19 03:57:10;;;;;;;36.33;12.57;;;0.00;99.90;;;;;;4440857;32;20191;-64
2022/01/19 03:59:37;;;;;;;38.23;12.50;;;0.00;99.90;;;;;;4440025;32;20198;-65
2022/01/19 04:02:05;;;;;;;36.80;12.00;;;0.00;99.90;;;;;;4441549;32;20162;-64
2022/01/19 04:04:41;;;;;;;34.03;11.87;;;0.00;99.90;;;;;;4441751;32;20166;-64
2022/01/19 04:07:28;;;;;;;35.97;13.03;;;0.00;99.90;;;;;;4441456;32;20445;-64
2022/01/19 04:09:54;;;;;;;36.63;12.50;;;0.00;99.90;;;;;;4441053;32;20175;-64
2022/01/19 04:12:41;;;;;;;37.73;12.83;;;0.00;99.90;;;;;;4441647;32;20439;-64
2022/01/19 04:15:10;;;;;;;41.07;12.60;;;0.00;99.90;;;;;;4439483;32;20201;-64
2022/01/19 04:17:42;;;;;;;35.47;12.40;;;0.00;99.90;;;;;;4439006;32;20217;-64
2022/01/19 04:20:10;;;;;;;34.73;12.70;;;0.00;99.90;;;;;;4441378;32;20211;-64
2022/01/19 04:22:37;;;;;;;41.33;13.10;;;0.00;99.90;;;;;;4439794;32;20266;-64
2022/01/19 04:25:04;;;;;;;40.23;12.90;;;0.00;99.90;;;;;;4441399;32;20189;-64
2022/01/19 04:27:32;;;;;;;39.23;12.80;;;0.10;99.90;;;;;;4440680;32;20237;-64
2022/01/19 04:30:12;;;;;;;36.50;12.50;;;0.00;99.90;;;;;;4441432;32;20171;-64
2022/01/19 04:35:24;;;;;;;36.67;12.07;;;0.10;99.90;;;;;;4439226;32;20249;-64
2022/01/19 04:54:42;;;;;;;32.77;12.57;;;0.30;99.90;;;;;;4440068;32;20528;-64
2022/01/19 05:05:19;;;;;;;34.40;12.47;;;0.30;99.90;;;;;;4439243;32;20201;-64
2022/01/19 05:15:48;;;;;;;35.30;12.37;;;0.40;99.90;;;;;;4439016;32;20170;-64
2022/01/19 05:18:17;;;;;;;36.07;12.90;;;0.50;99.90;;;;;;4441225;32;20138;-64
2022/01/19 05:20:48;;;;;;;31.30;12.60;;;0.50;99.90;;;;;;4439040;32;20181;-65
2022/01/19 05:23:16;;;;;;;32.80;13.03;;;0.50;99.90;;;;;;4441071;32;20359;-64
2022/01/19 05:25:45;;;;;;;33.87;13.27;;;0.50;99.90;;;;;;4438799;32;20170;-64
2022/01/19 05:28:13;;;;;;;39.07;13.23;;;0.50;99.90;;;;;;4439105;32;20167;-64
2022/01/19 05:30:40;;;;;;;33.03;12.20;;;0.60;99.90;;;;;;4439578;32;20512;-64
2022/01/19 05:33:07;;;;;;;35.50;13.90;;;0.60;99.90;;;;;;4439419;32;20273;-63
2022/01/19 05:35:34;;;;;;;33.47;13.67;;;0.60;99.90;;;;;;4437947;32;20178;-63
2022/01/19 05:38:01;;;;;;;36.33;13.87;;;0.60;99.90;;;;;;4438540;32;20266;-64
2022/01/19 05:40:28;;;;;;;32.97;13.80;;;0.60;99.90;;;;;;4439226;32;20217;-64
2022/01/19 05:42:55;;;;;;;35.07;13.63;;;0.70;99.90;;;;;;4438837;32;20229;-63
2022/01/19 05:45:22;;;;;;;36.43;13.80;;;0.70;99.90;;;;;;4440243;32;20150;-63
2022/01/19 05:47:49;;;;;;;33.80;14.07;;;0.70;99.90;;;;;;4438976;32;20193;-64
2022/01/19 05:50:16;;;;;;;32.47;13.83;;;0.70;99.90;;;;;;4438261;32;20190;-64
2022/01/19 05:52:42;;;;;;;34.27;14.00;;;0.80;99.90;;;;;;4440163;32;20139;-64
2022/01/19 05:55:09;;;;;;;37.30;13.90;;;0.80;99.90;;;;;;4440237;32;20464;-64
2022/01/19 05:57:36;;;;;;;32.10;14.27;;;0.80;99.90;;;;;;4439219;32;20184;-63
2022/01/19 06:00:06;;;;;;;38.73;14.47;;;0.80;99.90;;;;;;4438944;32;20163;-63
2022/01/19 06:02:32;;;;;;;31.77;13.60;;;0.80;99.90;;;;;;4437738;32;20167;-64
2022/01/19 06:04:59;;;;;;;37.00;14.47;;;0.80;99.90;;;;;;4438619;32;20231;-63
2022/01/19 06:07:29;;;;;;;37.03;14.33;;;0.90;99.90;;;;;;4437774;32;20213;-63
2022/01/19 06:10:05;;;;;;;33.23;14.37;;;0.90;99.90;;;;;;4438570;32;20524;-63
2022/01/19 06:12:33;;;;;;;41.07;14.67;;;0.90;99.90;;;;;;4438315;32;20424;-63
2022/01/19 06:15:00;;;;;;;35.13;14.87;;;1.00;99.90;;;;;;4439249;32;20196;-64
2022/01/19 06:17:27;;;;;;;35.07;13.80;;;1.00;99.90;;;;;;4439197;32;20178;-63
2022/01/19 06:19:57;;;;;;;31.37;12.80;;;1.00;99.90;;;;;;4439526;32;20138;-63
2022/01/19 06:22:23;;;;;;;29.30;13.03;;;1.00;99.90;;;;;;4437705;32;20190;-63
2022/01/19 06:24:50;;;;;;;35.77;14.13;;;1.00;99.90;;;;;;4439496;32;20524;-63
2022/01/19 06:27:17;;;;;;;34.47;12.70;;;1.10;99.90;;;;;;4438573;32;20229;-63
2022/01/19 06:29:44;;;;;;;29.90;12.70;;;1.10;99.90;;;;;;4437906;32;20224;-64
2022/01/19 06:32:11;;;;;;;32.80;13.23;;;1.10;99.90;;;;;;4438054;32;20447;-64
2022/01/19 06:34:38;;;;;;;31.27;13.87;;;1.20;99.90;;;;;;4424928;32;20228;-63
2022/01/19 06:37:05;;;;;;;31.83;13.20;;;1.20;99.90;;;;;;4437139;32;20198;-63
2022/01/19 06:39:32;;;;;;;30.33;13.17;;;1.20;99.90;;;;;;4437415;32;20200;-64
2022/01/19 06:41:58;;;;;;;26.60;12.83;;;1.30;99.90;;;;;;4438880;32;20406;-64
2022/01/19 06:44:25;;;;;;;36.70;13.33;;;1.30;99.90;;;;;;4440346;32;20135;-63
2022/01/19 06:46:52;;;;;;;29.67;12.83;;;1.20;99.90;;;;;;4440500;32;20540;-65
2022/01/19 06:49:19;;;;;;;31.47;12.80;;;1.30;99.90;;;;;;4438740;32;20252;-65
2022/01/19 06:51:46;;;;;;;33.87;12.83;;;1.30;99.90;;;;;;4439306;32;20130;-65
2022/01/19 06:54:13;;;;;;;39.30;13.73;;;1.30;99.90;;;;;;4437676;32;20250;-64
2022/01/19 06:56:40;;;;;;;31.17;13.33;;;1.30;99.90;;;;;;4437122;32;20220;-64
2022/01/19 06:59:07;;;;;;;34.17;12.17;;;1.30;99.90;;;;;;4437301;32;20208;-64
2022/01/19 07:01:34;;;;;;;32.43;13.00;;;1.30;99.90;;;;;;4438566;32;20600;-64
2022/01/19 07:04:04;;;;;;;33.00;13.47;;;1.30;99.90;;;;;;4437409;32;20175;-64
2022/01/19 07:06:31;;;;;;;27.43;12.17;;;1.40;99.90;;;;;;4438668;32;20289;-64
2022/01/19 07:08:58;;;;;;;31.60;13.43;;;1.40;99.90;;;;;;4436789;32;20170;-65
2022/01/19 07:11:25;;;;;;;25.53;12.53;;;1.40;99.90;;;;;;4438734;32;20151;-64
2022/01/19 07:13:52;;;;;;;24.57;11.90;;;1.40;99.90;;;;;;4438282;32;20174;-64
2022/01/19 07:16:19;;;;;;;32.73;12.63;;;1.40;99.90;;;;;;4437728;32;20496;-64
2022/01/19 07:18:46;;;;;;;28.17;12.30;;;1.40;99.90;;;;;;4436738;32;20200;-64
2022/01/19 07:21:13;;;;;;;31.40;12.83;;;1.50;99.90;;;;;;4437527;32;20197;-64
2022/01/19 07:23:40;;;;;;;29.53;13.10;;;1.50;99.90;;;;;;4438427;32;20507;-64
2022/01/19 07:26:06;;;;;;;24.80;11.77;;;1.50;99.90;;;;;;4436664;32;20194;-64
2022/01/19 07:28:33;;;;;;;28.03;12.77;;;1.50;99.90;;;;;;4438672;32;20519;-63
2022/01/19 07:31:00;;;;;;;31.27;12.97;;;1.60;99.90;;;;;;4439068;32;20202;-63
2022/01/19 07:33:31;;;;;;;30.13;13.20;;;1.60;99.90;;;;;;4438485;32;20167;-64
2022/01/19 07:35:58;;;;;;;32.87;12.97;;;1.50;99.90;;;;;;4436472;32;20250;-64
2022/01/19 07:38:26;;;;;;;33.23;13.27;;;1.60;99.90;;;;;;4438207;32;20783;-64
2022/01/19 07:40:54;;;;;;;30.83;13.20;;;1.60;99.90;;;;;;4437162;32;20444;-64
2022/01/19 07:43:21;;;;;;;36.87;13.67;;;1.60;99.90;;;;;;4437208;32;20189;-64
2022/01/19 07:45:48;;;;;;;26.63;13.20;;;1.60;99.90;;;;;;4437073;32;20224;-64
2022/01/19 07:48:16;;;;;;;30.77;12.40;;;1.60;99.90;;;;;;4438610;32;20150;-63
2022/01/19 07:50:43;;;;;;;24.60;12.10;;;1.60;99.90;;;;;;4437874;32;20194;-64
2022/01/19 07:53:10;;;;;;;26.90;12.40;;;1.60;99.90;;;;;;4439278;32;20162;-64
2022/01/19 07:55:37;;;;;;;30.87;12.27;;;1.60;99.90;;;;;;4439791;32;20604;-64
2022/01/19 07:58:04;;;;;;;26.20;12.10;;;1.60;99.90;;;;;;4441076;32;20171;-64
2022/01/19 08:00:33;;;;;;;31.70;12.23;;;1.70;99.90;;;;;;4439369;32;20197;-64
2022/01/19 08:03:00;;;;;;;26.40;11.40;;;1.70;99.90;;;;;;4439352;32;20200;-63
2022/01/19 08:05:27;;;;;;;28.27;12.33;;;1.70;99.90;;;;;;4439637;32;20183;-64
2022/01/19 08:07:54;;;;;;;29.80;12.27;;;1.80;99.90;;;;;;4440776;32;20166;-63
2022/01/19 08:10:21;;;;;;;30.67;12.30;;;1.80;99.90;;;;;;4442512;32;20406;-63
2022/01/19 08:12:51;;;;;;;24.70;11.63;;;1.80;99.90;;;;;;4440822;32;20214;-64
2022/01/19 08:15:18;;;;;;;31.37;11.73;;;1.90;99.90;;;;;;4441233;32;20229;-63
2022/01/19 08:17:45;;;;;;;23.90;11.83;;;1.90;99.90;;;;;;4439213;32;20179;-64
2022/01/19 08:20:12;;;;;;;25.17;11.63;;;2.00;99.90;;;;;;4439454;32;20183;-64
2022/01/19 08:22:39;;;;;;;24.30;11.33;;;1.90;99.90;;;;;;4439089;32;20170;-65
2022/01/19 08:25:06;;;;;;;24.87;11.17;;;2.00;99.90;;;;;;4440387;32;20143;-64
2022/01/19 08:27:33;;;;;;;25.40;11.47;;;2.00;99.90;;;;;;4441061;32;20166;-63
2022/01/19 08:30:00;;;;;;;28.47;11.67;;;2.00;99.90;;;;;;4440752;32;20258;-64
2022/01/19 08:32:27;;;;;;;25.33;11.60;;;2.00;99.90;;;;;;4440697;32;20161;-64
2022/01/19 08:34:59;;;;;;;23.47;11.20;;;2.10;99.90;;;;;;4439657;32;20216;-64
2022/01/19 08:37:26;;;;;;;25.93;12.17;;;2.10;99.90;;;;;;4437031;32;20224;-64
2022/01/19 08:39:53;;;;;;;25.80;11.57;;;2.10;99.90;;;;;;4439411;32;20146;-64
2022/01/19 08:42:21;;;;;;;29.57;12.03;;;2.10;99.90;;;;;;4440066;32;20174;-64
2022/01/19 08:44:52;;;;;;;25.40;11.80;;;2.20;99.90;;;;;;4438658;32;20193;-64
2022/01/19 08:47:20;;;;;;;28.13;11.77;;;2.20;99.90;;;;;;4440803;32;20174;-64
2022/01/19 08:49:52;;;;;;;27.80;12.33;;;2.20;99.90;;;;;;4440237;32;20224;-64
2022/01/19 08:52:22;;;;;;;27.13;12.50;;;2.30;99.90;;;;;;4439107;32;20175;-65
2022/01/19 08:54:49;;;;;;;28.33;12.00;;;2.20;99.90;;;;;;4439734;32;20216;-64
2022/01/19 08:57:18;;;;;;;25.90;11.33;;;2.20;99.90;;;;;;4438814;32;20204;-64
2022/01/19 08:59:45;;;;;;;24.80;12.23;;;2.20;99.90;;;;;;4440405;32;20193;-64
2022/01/19 09:02:13;;;;;;;26.93;12.17;;;2.20;99.90;;;;;;4438450;32;20198;-65
2022/01/19 09:04:40;;;;;;;32.47;12.93;;;2.20;99.90;;;;;;4439842;32;20179;-65
2022/01/19 09:07:07;;;;;;;26.57;12.13;;;2.10;99.90;;;;;;4441138;32;20403;-64
2022/01/19 09:09:33;;;;;;;25.93;11.67;;;2.20;99.90;;;;;;4440358;32;20217;-64
2022/01/19 09:12:00;;;;;;;27.57;12.40;;;2.10;99.90;;;;;;4439073;32;20193;-64
2022/01/19 09:14:30;;;;;;;27.70;12.43;;;2.10;99.90;;;;;;4439559;32;20158;-64
2022/01/19 09:16:57;;;;;;;27.93;12.33;;;2.10;99.90;;;;;;4439861;32;20429;-64
2022/01/19 09:19:24;;;;;;;25.37;12.63;;;2.10;99.90;;;;;;4439490;32;20258;-64
2022/01/19 09:21:51;;;;;;;32.67;12.93;;;2.20;99.90;;;;;;4439594;32;20246;-64
2022/01/19 09:24:19;;;;;;;29.93;13.40;;;2.20;99.90;;;;;;4439944;32;20641;-64
2022/01/19 09:26:46;;;;;;;27.80;13.27;;;2.20;99.90;;;;;;4439500;32;20178;-65
2022/01/19 09:29:13;;;;;;;26.87;13.03;;;2.20;99.90;;;;;;4440047;32;20151;-64
2022/01/19 09:31:43;;;;;;;30.70;13.63;;;2.20;99.90;;;;;;4439089;32;20496;-64
2022/01/19 09:34:15;;;;;;;30.40;13.23;;;2.30;99.90;;;;;;4437744;32;20223;-64
2022/01/19 09:36:46;;;;;;;27.73;13.03;;;2.30;99.90;;;;;;4438807;32;20496;-64
2022/01/19 09:39:33;;;;;;;28.13;12.73;;;2.30;99.90;;;;;;4437681;32;20178;-64
2022/01/19 09:42:01;;;;;;;30.10;12.77;;;2.30;99.90;;;;;;4438882;32;20197;-64
2022/01/19 09:44:29;;;;;;;32.00;13.60;;;2.30;99.90;;;;;;4439219;32;20186;-65
2022/01/19 09:46:57;;;;;;;25.57;12.70;;;2.30;99.90;;;;;;4437125;32;20340;-64
2022/01/19 09:49:24;;;;;;;29.33;13.20;;;2.40;99.90;;;;;;4440140;32;20380;-64
2022/01/19 09:51:54;;;;;;;29.60;13.47;;;2.30;99.90;;;;;;4438966;32;20186;-64
2022/01/19 09:54:26;;;;;;;30.57;13.70;;;2.30;99.90;;;;;;4437186;32;20162;-65
2022/01/19 09:56:55;;;;;;;25.00;12.47;;;2.30;99.90;;;;;;4440532;32;20411;-65
2022/01/19 09:59:23;;;;;;;30.57;13.83;;;2.20;99.90;;;;;;4437335;32;20182;-65
2022/01/19 10:01:54;;;;;;;29.50;12.90;;;2.20;99.90;;;;;;4438296;32;20179;-65
2022/01/19 10:04:28;;;;;;;32.70;13.40;;;2.30;99.90;;;;;;4439316;32;20408;-65
2022/01/19 10:07:15;;;;;;;28.27;13.40;;;2.20;99.90;;;;;;4437424;32;20451;-65
2022/01/19 10:09:57;;;;;;;31.43;14.47;;;2.20;99.90;;;;;;4438027;32;20229;-65
2022/01/19 10:18:18;;;;;;;30.43;14.07;;;2.40;99.90;;;;;;4438920;32;20226;-65
2022/01/19 10:20:47;;;;;;;31.20;14.67;;;2.30;99.90;;;;;;4438565;32;20174;-65
2022/01/19 10:23:37;;;;;;;31.23;13.97;;;2.30;99.90;;;;;;4438057;32;20201;-65
2022/01/19 10:26:10;;;;;;;28.67;13.53;;;2.30;99.90;;;;;;4433576;32;20194;-66
2022/01/19 10:29:16;;;;;;;28.57;13.93;;;2.30;99.90;;;;;;4437141;32;20572;-65
2022/01/19 10:31:44;;;;;;;25.90;12.97;;;2.40;99.90;;;;;;4440543;32;20177;-65
2022/01/19 10:34:18;;;;;;;27.70;13.97;;;2.40;99.90;;;;;;4438739;32;20247;-65
2022/01/19 10:36:55;;;;;;;31.17;13.83;;;2.40;99.90;;;;;;4436874;32;20301;-66
2022/01/19 10:39:37;;;;;;;29.37;13.67;;;2.30;99.90;;;;;;4437646;32;20181;-65
2022/01/19 10:42:09;;;;;;;30.70;14.63;;;2.30;99.90;;;;;;4440097;32;20139;-65
2022/01/19 10:44:44;;;;;;;29.80;14.67;;;2.40;99.90;;;;;;4440586;32;20405;-64
2022/01/19 10:47:40;;;;;;;31.40;13.47;;;2.40;99.90;;;;;;4438808;32;20194;-65
2022/01/19 10:50:10;;;;;;;30.63;14.37;;;2.40;99.90;;;;;;4438855;32;20178;-65
2022/01/19 10:52:43;;;;;;;32.50;14.73;;;2.30;99.90;;;;;;4438798;32;20163;-65
2022/01/19 10:55:23;;;;;;;34.23;14.97;;;2.40;99.90;;;;;;4437224;32;20192;-65
2022/01/19 10:57:51;;;;;;;28.33;14.20;;;2.40;99.90;;;;;;4439405;32;20134;-64
2022/01/19 11:00:33;;;;;;;32.83;14.77;;;2.30;99.90;;;;;;4438193;32;20170;-65
2022/01/19 11:03:21;;;;;;;32.33;14.90;;;2.30;99.90;;;;;;4437223;32;20159;-65
2022/01/19 11:05:57;;;;;;;30.87;13.80;;;2.30;99.90;;;;;;4437858;32;20612;-65
2022/01/19 11:08:27;;;;;;;32.43;14.00;;;2.30;99.90;;;;;;4438286;32;20208;-66
2022/01/19 11:10:57;;;;;;;30.60;14.50;;;2.30;99.90;;;;;;4437699;32;20225;-64
2022/01/19 11:13:39;;;;;;;29.87;14.40;;;2.40;99.90;;;;;;4436800;32;20174;-63
2022/01/19 11:16:07;;;;;;;28.50;14.20;;;2.40;99.90;;;;;;4438728;32;20171;-64
2022/01/19 11:18:37;;;;;;;32.00;14.23;;;2.30;99.90;;;;;;4438639;32;20174;-64
2022/01/19 11:21:10;;;;;;;29.57;13.80;;;2.40;99.90;;;;;;4437014;32;20175;-64
2022/01/19 11:24:05;;;;;;;30.90;14.60;;;2.50;99.90;;;;;;4437977;32;20170;-64
2022/01/19 11:26:35;;;;;;;31.33;14.80;;;2.40;99.90;;;;;;4439315;32;20169;-64
2022/01/19 11:29:13;;;;;;;34.00;15.00;;;2.40;99.90;;;;;;4441156;32;20171;-64
2022/01/19 11:31:40;;;;;;;35.10;14.93;;;2.50;99.90;;;;;;4439956;32;20570;-64
2022/01/19 11:34:07;;;;;;;33.80;15.47;;;2.50;99.90;;;;;;4440415;32;20515;-64
2022/01/19 11:36:39;;;;;;;33.17;15.80;;;2.50;99.90;;;;;;4440397;32;20450;-64
2022/01/19 11:39:08;;;;;;;30.87;15.10;;;2.40;99.90;;;;;;4440251;32;20213;-63
2022/01/19 11:41:37;;;;;;;31.83;15.50;;;2.40;99.90;;;;;;4439928;32;20170;-64
2022/01/19 11:44:05;;;;;;;35.30;16.20;;;2.40;99.90;;;;;;4439873;32;20277;-63
2022/01/19 11:46:39;;;;;;;35.80;17.07;;;2.50;99.90;;;;;;4441325;32;20220;-63
2022/01/19 11:49:10;;;;;;;35.93;17.03;;;2.40;99.90;;;;;;4439181;32;20232;-64
2022/01/19 11:51:42;;;;;;;37.43;17.20;;;2.40;99.90;;;;;;4439449;32;20166;-64
2022/01/19 11:54:17;;;;;;;35.23;17.03;;;2.40;99.90;;;;;;4440034;32;20230;-65
2022/01/19 11:56:59;;;;;;;38.07;16.87;;;2.50;99.90;;;;;;4440949;32;20234;-65
2022/01/19 11:59:30;;;;;;;37.07;17.17;;;2.50;99.90;;;;;;4441254;32;20219;-64
2022/01/19 12:02:26;;;;;;;34.30;17.03;;;2.50;99.90;;;;;;4441432;32;20183;-64
2022/01/19 12:05:19;;;;;;;35.97;17.10;;;2.40;99.90;;;;;;4432271;32;20249;-63
2022/01/19 12:07:52;;;;;;;31.27;16.90;;;2.40;99.90;;;;;;4441870;32;20166;-63
2022/01/19 12:10:30;;;;;;;33.57;16.83;;;2.40;99.90;;;;;;4439265;32;20202;-64
2022/01/19 12:13:29;;;;;;;35.23;17.23;;;2.40;99.90;;;;;;4439423;32;20170;-64
2022/01/19 12:16:26;;;;;;;33.97;17.10;;;2.50;99.90;;;;;;4439490;32;20185;-64
2022/01/19 12:19:14;;;;;;;33.43;16.53;;;2.40;99.90;;;;;;4440549;32;20205;-64
2022/01/19 12:21:55;;;;;;;37.03;16.47;;;2.50;99.90;;;;;;4439619;32;20219;-63
2022/01/19 12:24:59;;;;;;;35.07;16.57;;;2.50;99.90;;;;;;4439832;32;20189;-63
2022/01/19 12:27:34;;;;;;;31.63;17.07;;;2.50;99.90;;;;;;4440905;32;20171;-64
2022/01/19 12:30:14;;;;;;;38.77;16.47;;;2.60;99.90;;;;;;4439974;32;20178;-64
2022/01/19 12:32:41;;;;;;;36.47;17.53;;;2.60;99.90;;;;;;4441099;32;20247;-64
2022/01/19 12:35:14;;;;;;;36.20;16.77;;;2.60;99.90;;;;;;4438796;32;20468;-64
2022/01/19 12:37:46;;;;;;;35.57;16.77;;;2.60;99.90;;;;;;4438617;32;20524;-64
2022/01/19 12:40:19;;;;;;;38.07;17.93;;;2.50;99.90;;;;;;4438465;32;20493;-64
2022/01/19 12:42:58;;;;;;;35.97;16.80;;;2.60;99.90;;;;;;4439866;32;20186;-64
2022/01/19 12:45:33;;;;;;;35.50;17.10;;;2.60;99.90;;;;;;4440736;32;20134;-64
2022/01/19 12:48:07;;;;;;;39.87;17.60;;;2.70;99.90;;;;;;4440696;32;20181;-64
2022/01/19 12:50:46;;;;;;;36.23;17.40;;;2.60;99.90;;;;;;4441367;32;20154;-64
2022/01/19 12:53:22;;;;;;;37.43;17.07;;;2.60;99.90;;;;;;4438782;32;20374;-64
2022/01/19 12:55:59;;;;;;;38.60;17.67;;;2.60;99.90;;;;;;4439178;32;20173;-64
2022/01/19 12:58:34;;;;;;;39.50;18.13;;;2.60;99.90;;;;;;4439744;32;20347;-63
2022/01/19 13:01:11;;;;;;;38.03;17.10;;;2.70;99.90;;;;;;4438595;32;20555;-64
2022/01/19 13:03:41;;;;;;;37.27;17.77;;;2.70;99.90;;;;;;4438834;32;20193;-64
2022/01/19 13:06:14;;;;;;;38.97;18.50;;;2.60;99.90;;;;;;4439338;32;20174;-64
2022/01/19 13:08:56;;;;;;;36.27;17.23;;;2.60;99.90;;;;;;4438663;32;20438;-64
2022/01/19 13:11:34;;;;;;;36.00;17.30;;;2.60;99.90;;;;;;4440358;32;20186;-64
2022/01/19 13:14:05;;;;;;;36.47;17.83;;;2.70;99.90;;;;;;4439802;32;20170;-63
2022/01/19 13:16:44;;;;;;;33.60;17.23;;;2.70;99.90;;;;;;4439629;32;20549;-64
2022/01/19 13:19:15;;;;;;;42.50;18.37;;;2.70;99.90;;;;;;4438943;32;20185;-64
2022/01/19 13:21:45;;;;;;;34.40;17.60;;;2.70;99.90;;;;;;4440344;32;20142;-64
2022/01/19 13:24:22;;;;;;;36.53;18.17;;;2.70;99.90;;;;;;4437946;32;20197;-64
2022/01/19 13:26:54;;;;;;;36.83;17.73;;;2.70;99.90;;;;;;4437773;32;20479;-64
2022/01/19 13:29:25;;;;;;;38.07;17.90;;;2.70;99.90;;;;;;4439006;32;20189;-64
2022/01/19 13:32:18;;;;;;;34.23;18.33;;;2.70;99.90;;;;;;4438677;32;20460;-64
2022/01/19 13:34:49;;;;;;;36.27;18.30;;;2.70;99.90;;;;;;4391452;32;20189;-65
2022/01/19 13:37:16;;;;;;;37.97;18.30;;;2.70;99.90;;;;;;4378616;32;20478;-64
2022/01/19 13:39:43;;;;;;;38.07;19.23;;;2.70;99.90;;;;;;4379048;32;20420;-64
2022/01/19 13:42:11;;;;;;;39.50;19.10;;;2.70;99.90;;;;;;4380349;32;20225;-64
2022/01/19 13:44:47;;;;;;;39.03;19.73;;;2.70;99.90;;;;;;4379124;32;20194;-64
2022/01/19 13:47:26;;;;;;;41.03;18.83;;;2.70;99.90;;;;;;4391516;32;20181;-64
2022/01/19 13:49:53;;;;;;;43.33;20.63;;;2.70;99.90;;;;;;4363744;32;20200;-64
2022/01/19 13:52:24;;;;;;;39.47;19.83;;;2.60;99.90;;;;;;4364182;32;20447;-64
2022/01/19 13:54:52;;;;;;;40.17;21.00;;;2.60;99.90;;;;;;4363296;32;20182;-63
2022/01/19 13:57:28;;;;;;;44.87;21.80;;;2.60;99.90;;;;;;4363449;32;20215;-63
2022/01/19 14:00:09;;;;;;;44.83;21.83;;;2.70;99.90;;;;;;4376358;32;20223;-63
2022/01/19 14:02:36;;;;;;;49.17;21.63;;;2.70;99.90;;;;;;4364508;32;20206;-64
2022/01/19 14:05:43;;;;;;;45.30;22.10;;;2.70;99.90;;;;;;4364824;32;20251;-63
2022/01/19 14:08:11;;;;;;;45.70;21.03;;;2.70;99.90;;;;;;4364035;32;20264;-63
2022/01/19 14:10:49;;;;;;;47.10;22.70;;;2.70;99.90;;;;;;4377634;32;20176;-62
2022/01/19 14:13:27;;;;;;;50.47;22.57;;;2.60;99.90;;;;;;4423801;32;20177;-62
2022/01/19 14:15:56;;;;;;;45.87;22.47;;;2.50;99.90;;;;;;4422680;32;20174;-63
2022/01/19 14:18:24;;;;;;;47.87;22.53;;;2.50;99.90;;;;;;4422310;32;20196;-63
2022/01/19 14:21:10;;;;;;;50.17;23.47;;;2.50;99.90;;;;;;4423724;32;20183;-63